Time;durP1;ratioP1;P1;durP2;ratioP2;P2;SDS_P1;SDS_P2;PMS_P1;PMS_P2;Temp;Humidity;BMP_temperature;BMP_pressure;BME280_temperature;BME280_humidity;BME280_pressure;Samples;Min_cycle;Max_cycle;Signal;HPM_P1;HPM_P2
2023/04/24 00:01:54;;;;;;;4.90;1.20;;;;;;;13.50;88.28;97153.94;4186450;28;20732;-77
2023/04/24 00:03:59;;;;;;;2.10;1.10;;;;;;;13.52;88.82;97144.13;4189382;28;20682;-77
2023/04/24 00:06:02;;;;;;;2.80;1.20;;;;;;;13.55;89.22;97135.16;4186788;28;20672;-77
2023/04/24 00:08:05;;;;;;;1.70;1.20;;;;;;;13.58;88.89;97138.31;4188173;28;20735;-77
2023/04/24 00:10:09;;;;;;;2.47;1.47;;;;;;;13.62;89.24;97138.81;4181162;28;21271;-77
2023/04/24 00:12:12;;;;;;;4.30;1.60;;;;;;;13.63;88.24;97133.44;4191205;28;20736;-77
2023/04/24 00:14:17;;;;;;;3.73;1.70;;;;;;;13.63;89.03;97138.69;4183733;28;20687;-77
2023/04/24 00:16:20;;;;;;;2.23;1.20;;;;;;;13.65;89.30;97145.44;4171190;28;20687;-77
2023/04/24 00:18:23;;;;;;;2.33;1.50;;;;;;;13.67;90.17;97151.34;4185106;28;20623;-77
2023/04/24 00:20:26;;;;;;;3.73;2.50;;;;;;;13.68;90.22;97141.69;4182875;28;20654;-77
2023/04/24 00:22:29;;;;;;;3.83;2.40;;;;;;;13.70;89.53;97134.50;4185661;28;21811;-77
2023/04/24 00:24:32;;;;;;;2.83;1.90;;;;;;;13.69;88.92;97133.66;4188505;28;20653;-77
2023/04/24 00:26:35;;;;;;;2.87;1.50;;;;;;;13.71;89.51;97142.22;4185214;28;20765;-77
2023/04/24 00:28:39;;;;;;;4.60;2.83;;;;;;;13.70;89.93;97143.19;4182837;28;20664;-77
2023/04/24 00:30:43;;;;;;;1.63;1.27;;;;;;;13.71;89.92;97147.47;4189991;28;20614;-77
2023/04/24 00:32:46;;;;;;;3.30;1.87;;;;;;;13.72;90.56;97143.84;4184620;28;20629;-77
2023/04/24 00:34:49;;;;;;;4.20;1.60;;;;;;;13.73;89.53;97142.09;4191229;28;20629;-77
2023/04/24 00:36:53;;;;;;;4.43;1.80;;;;;;;13.72;88.23;97138.63;4186637;28;20630;-77
2023/04/24 00:38:56;;;;;;;2.80;1.40;;;;;;;13.74;88.91;97143.72;4180033;28;20641;-77
2023/04/24 00:40:59;;;;;;;2.70;1.60;;;;;;;13.73;90.19;97148.13;4178665;28;20695;-77
2023/04/24 00:43:02;;;;;;;2.20;1.60;;;;;;;13.73;89.30;97145.50;4185520;28;21170;-77
2023/04/24 00:45:07;;;;;;;2.90;1.43;;;;;;;13.73;89.63;97145.50;4189331;28;20633;-77
2023/04/24 00:47:12;;;;;;;5.30;1.70;;;;;;;13.77;89.91;97157.38;4188969;28;20711;-77
2023/04/24 00:49:16;;;;;;;2.73;1.77;;;;;;;13.78;90.45;97150.31;4188603;28;20732;-77
2023/04/24 00:51:19;;;;;;;1.80;1.37;;;;;;;13.79;89.55;97154.59;4170324;28;20666;-77
2023/04/24 00:53:23;;;;;;;2.43;1.60;;;;;;;13.78;89.99;97148.50;4179528;28;20635;-77
2023/04/24 00:55:26;;;;;;;3.33;1.73;;;;;;;13.79;89.71;97144.13;4174012;28;20663;-77
2023/04/24 00:57:29;;;;;;;2.90;1.47;;;;;;;13.78;89.84;97139.84;4171772;28;20742;-77
2023/04/24 00:59:33;;;;;;;1.97;1.47;;;;;;;13.76;89.67;97139.97;4183671;28;20631;-77
2023/04/24 01:01:36;;;;;;;1.80;1.10;;;;;;;13.78;89.10;97138.03;4187637;28;22793;-77
2023/04/24 01:03:42;;;;;;;2.43;1.40;;;;;;;13.80;89.16;97135.25;4188461;28;20713;-77
2023/04/24 01:05:45;;;;;;;4.00;1.70;;;;;;;13.79;88.75;97134.44;4187423;28;20744;-77
2023/04/24 01:07:48;;;;;;;2.20;0.97;;;;;;;13.79;88.59;97123.97;4189914;28;20720;-77
2023/04/24 01:09:52;;;;;;;2.70;1.63;;;;;;;13.78;88.19;97129.34;4185016;28;20669;-77
2023/04/24 01:11:56;;;;;;;2.27;1.40;;;;;;;13.77;88.92;97125.91;4190349;28;20667;-77
2023/04/24 01:13:59;;;;;;;2.43;1.30;;;;;;;13.77;88.51;97125.91;4190226;28;20641;-77
2023/04/24 01:16:02;;;;;;;3.17;1.33;;;;;;;13.74;89.17;97120.97;4185371;28;20630;-77
2023/04/24 01:18:06;;;;;;;2.47;1.30;;;;;;;13.73;88.65;97128.97;4173018;28;20681;-77
2023/04/24 01:20:11;;;;;;;1.60;1.20;;;;;;;13.71;89.09;97126.50;4189509;28;21224;-77
2023/04/24 01:22:18;;;;;;;1.97;1.17;;;;;;;13.71;89.03;97125.66;4177723;28;20768;-77
2023/04/24 01:24:21;;;;;;;2.40;1.50;;;;;;;13.73;89.18;97132.41;4186011;28;21189;-77
2023/04/24 01:26:25;;;;;;;1.97;1.33;;;;;;;13.74;89.38;97120.97;4185822;28;20683;-77
2023/04/24 01:28:28;;;;;;;2.17;1.17;;;;;;;13.74;88.95;97120.13;4183751;28;20641;-77
2023/04/24 01:30:31;;;;;;;2.30;1.20;;;;;;;13.74;88.90;97118.34;4188045;28;20638;-77
2023/04/24 01:32:35;;;;;;;2.57;1.47;;;;;;;13.76;89.16;97108.53;4185740;28;20650;-77
2023/04/24 01:34:38;;;;;;;3.40;1.47;;;;;;;13.74;88.58;97115.72;4178794;28;20638;-77
2023/04/24 01:36:42;;;;;;;4.60;1.43;;;;;;;13.74;88.62;97115.72;4187849;28;21282;-77
2023/04/24 01:38:47;;;;;;;2.17;1.23;;;;;;;13.72;88.11;97117.66;4184666;28;20629;-77
2023/04/24 01:40:50;;;;;;;3.07;1.10;;;;;;;13.73;88.21;97097.53;4187446;28;20658;-77
2023/04/24 01:42:53;;;;;;;2.77;1.30;;;;;;;13.73;89.06;97102.78;4188687;28;20657;-77
2023/04/24 01:44:57;;;;;;;3.10;1.67;;;;;;;13.72;89.59;97096.69;4192425;28;20633;-77
2023/04/24 01:47:01;;;;;;;2.80;1.10;;;;;;;13.71;89.52;97099.44;4182617;28;20730;-77
2023/04/24 01:49:05;;;;;;;2.30;1.23;;;;;;;13.72;89.03;97108.97;4182947;28;20676;-77
2023/04/24 01:51:08;;;;;;;1.80;1.20;;;;;;;13.71;88.35;97088.97;4171915;28;20643;-77
2023/04/24 01:53:13;;;;;;;1.40;0.90;;;;;;;13.67;87.66;97083.22;4191956;28;20649;-77
2023/04/24 01:55:17;;;;;;;2.50;1.10;;;;;;;13.66;87.62;97081.56;4190192;28;20727;-77
2023/04/24 01:57:21;;;;;;;1.83;1.20;;;;;;;13.69;88.29;97091.75;4178402;28;20640;-77
2023/04/24 01:59:24;;;;;;;3.03;1.10;;;;;;;13.70;88.05;97092.59;4191126;28;20640;-77
2023/04/24 02:01:27;;;;;;;2.90;1.60;;;;;;;13.71;87.64;97089.81;4193209;28;21105;-77
2023/04/24 02:03:31;;;;;;;2.27;1.03;;;;;;;13.64;87.30;97088.75;4195828;28;20648;-77
2023/04/24 02:05:34;;;;;;;2.73;1.10;;;;;;;13.59;87.34;97081.47;4176838;28;20657;-77
2023/04/24 02:07:39;;;;;;;1.93;1.10;;;;;;;13.51;86.92;97079.59;4177069;28;20705;-77
2023/04/24 02:09:42;;;;;;;3.60;1.30;;;;;;;13.43;87.60;97081.31;4187550;28;20650;-77
2023/04/24 02:11:46;;;;;;;2.53;1.47;;;;;;;13.39;86.65;97085.19;4192342;28;20647;-77
2023/04/24 02:13:50;;;;;;;2.97;1.20;;;;;;;13.37;87.56;97084.53;4188574;28;20727;-77
2023/04/24 02:15:53;;;;;;;1.90;1.20;;;;;;;13.36;87.52;97095.94;4191495;28;20718;-77
2023/04/24 02:17:56;;;;;;;1.50;0.90;;;;;;;13.28;87.32;97086.22;4174214;28;20741;-77
2023/04/24 02:19:59;;;;;;;2.67;1.10;;;;;;;13.22;87.11;97096.44;4168510;28;20639;-77
2023/04/24 02:22:02;;;;;;;3.23;1.00;;;;;;;13.15;87.41;97092.75;4172961;28;20663;-77
2023/04/24 02:24:05;;;;;;;2.60;0.93;;;;;;;13.09;87.83;97084.66;4183926;28;20696;-77
2023/04/24 02:26:09;;;;;;;5.77;1.50;;;;;;;13.05;88.01;97083.28;4187579;28;20646;-77
2023/04/24 02:28:13;;;;;;;3.23;1.80;;;;;;;13.03;87.07;97080.00;4188673;28;20622;-77
2023/04/24 02:30:16;;;;;;;1.93;1.10;;;;;;;12.93;87.14;97080.03;4172507;28;20673;-77
2023/04/24 02:32:20;;;;;;;1.77;0.93;;;;;;;12.86;87.47;97078.97;4187506;28;21043;-77
2023/04/24 02:34:23;;;;;;;2.80;1.30;;;;;;;12.81;88.10;97081.16;4189541;28;20643;-77
2023/04/24 02:36:27;;;;;;;2.70;1.20;;;;;;;12.82;89.40;97076.72;4168746;28;21085;-77
2023/04/24 02:38:30;;;;;;;1.63;1.20;;;;;;;12.75;89.58;97076.50;4184935;28;20640;-77
2023/04/24 02:40:33;;;;;;;3.30;1.10;;;;;;;12.72;89.73;97083.81;4185589;28;20632;-77
2023/04/24 02:42:36;;;;;;;3.00;1.20;;;;;;;12.68;89.18;97085.88;4182731;28;20682;-77
2023/04/24 02:44:40;;;;;;;2.50;1.20;;;;;;;12.70;90.47;97088.34;4203596;28;20636;-77
2023/04/24 02:46:44;;;;;;;3.03;1.30;;;;;;;12.71;88.76;97079.53;4185838;28;20631;-77
2023/04/24 02:48:47;;;;;;;2.17;1.13;;;;;;;12.71;88.80;97082.97;4172383;28;20675;-77
2023/04/24 02:50:51;;;;;;;2.80;1.23;;;;;;;12.69;89.60;97081.47;4187132;28;21225;-77
2023/04/24 02:52:54;;;;;;;1.70;1.10;;;;;;;12.71;89.42;97084.75;4181740;28;20702;-77
2023/04/24 02:54:57;;;;;;;4.20;1.33;;;;;;;12.71;90.44;97082.97;4185112;28;20628;-77
2023/04/24 02:57:00;;;;;;;2.17;1.40;;;;;;;12.76;89.60;97083.38;4184085;28;20795;-77
2023/04/24 02:59:04;;;;;;;2.33;1.27;;;;;;;12.79;90.85;97093.56;4192771;28;20795;-77
2023/04/24 03:01:09;;;;;;;3.63;1.23;;;;;;;12.86;89.40;97104.31;4188794;28;20665;-77
2023/04/24 03:03:13;;;;;;;2.87;1.30;;;;;;;12.84;90.41;97107.06;4191601;28;20711;-77
2023/04/24 03:05:16;;;;;;;3.87;1.03;;;;;;;12.78;92.47;97096.31;4191952;28;20667;-77
2023/04/24 03:07:20;;;;;;;2.10;1.20;;;;;;;12.73;91.92;97094.13;4188919;28;20631;-77
2023/04/24 03:09:23;;;;;;;4.00;1.10;;;;;;;12.68;93.02;97096.31;4187255;28;20778;-77
2023/04/24 03:11:26;;;;;;;2.27;1.47;;;;;;;12.63;92.96;97099.50;4184586;28;20636;-77
2023/04/24 03:13:29;;;;;;;2.33;1.10;;;;;;;12.56;93.47;97093.22;4193179;28;21233;-77
2023/04/24 03:15:32;;;;;;;3.97;1.93;;;;;;;12.53;94.80;97088.25;4186991;28;20731;-77
2023/04/24 03:17:37;;;;;;;2.30;1.10;;;;;;;12.53;93.21;97081.22;4188774;28;20640;-77
2023/04/24 03:19:40;;;;;;;1.90;1.10;;;;;;;12.47;94.23;97088.81;4173153;28;20641;-77
2023/04/24 03:21:46;;;;;;;2.70;1.10;;;;;;;12.42;95.78;97089.25;4188584;28;21242;-77
2023/04/24 03:23:49;;;;;;;3.30;1.40;;;;;;;12.36;95.52;97078.53;4185532;28;20697;-77
2023/04/24 03:25:52;;;;;;;1.47;1.10;;;;;;;12.34;95.51;97077.81;4164851;28;20716;-77
2023/04/24 03:27:55;;;;;;;3.30;1.30;;;;;;;12.40;95.67;97075.50;4192336;28;20652;-77
2023/04/24 03:30:08;;;;;;;1.97;1.10;;;;;;;12.44;94.38;97089.09;4186336;28;20672;-77
2023/04/24 03:32:19;;;;;;;1.80;1.20;;;;;;;12.40;95.70;97080.72;4204758;28;21331;-77
2023/04/24 03:34:24;;;;;;;2.27;1.13;;;;;;;12.39;95.31;97084.28;4166719;28;21627;-77
2023/04/24 03:36:27;;;;;;;3.93;1.20;;;;;;;12.39;95.03;97089.53;4171240;28;20646;-77
2023/04/24 03:38:31;;;;;;;3.80;1.20;;;;;;;12.41;95.28;97089.38;4184956;28;20638;-77
2023/04/24 03:40:38;;;;;;;2.63;1.40;;;;;;;12.49;94.02;97089.50;4187662;28;21067;-77
2023/04/24 03:42:52;;;;;;;2.37;1.03;;;;;;;12.55;94.84;97092.38;4181031;28;20665;-77
2023/04/24 03:44:55;;;;;;;1.60;1.17;;;;;;;12.59;94.25;97095.53;4180678;28;20973;-77
2023/04/24 03:47:03;;;;;;;2.43;1.20;;;;;;;12.68;94.05;97096.31;4180059;28;20758;-77
2023/04/24 03:49:07;;;;;;;2.50;1.20;;;;;;;12.75;93.38;97102.66;4181963;28;20640;-77
2023/04/24 03:51:14;;;;;;;2.00;1.13;;;;;;;12.77;93.64;97095.47;4183287;28;21200;-77
2023/04/24 03:53:21;;;;;;;2.17;1.50;;;;;;;12.79;93.66;97090.94;4162179;28;20652;-77
2023/04/24 03:55:25;;;;;;;3.20;1.00;;;;;;;12.81;93.75;97096.03;4187696;28;21242;-77
2023/04/24 03:57:29;;;;;;;2.30;1.27;;;;;;;12.78;93.72;97093.72;4171390;28;21425;-77
2023/04/24 03:59:43;;;;;;;2.60;1.23;;;;;;;12.81;92.82;97089.00;4173786;28;21113;-77
2023/04/24 04:01:52;;;;;;;3.30;1.40;;;;;;;12.81;92.57;97088.19;4188823;28;20763;-77
2023/04/24 04:03:56;;;;;;;2.20;1.23;;;;;;;12.82;91.69;97077.63;4183726;28;20644;-77
2023/04/24 04:06:01;;;;;;;3.30;1.50;;;;;;;12.84;91.53;97090.56;4176993;28;20663;-77
2023/04/24 04:08:05;;;;;;;2.13;1.03;;;;;;;12.85;92.03;97090.41;4172535;28;20970;-77
2023/04/24 04:10:09;;;;;;;3.00;1.10;;;;;;;12.89;92.51;97088.31;4187674;28;21254;-77
2023/04/24 04:12:13;;;;;;;1.60;1.10;;;;;;;12.81;91.52;97094.25;4170826;28;20659;-77
2023/04/24 04:14:16;;;;;;;1.73;1.00;;;;;;;12.80;91.48;97100.44;4184777;28;20728;-76
2023/04/24 04:16:23;;;;;;;1.70;0.90;;;;;;;12.82;92.05;97093.31;4187433;28;20635;-77
2023/04/24 04:18:30;;;;;;;1.80;1.00;;;;;;;12.73;91.09;97094.13;4183767;28;20643;-77
2023/04/24 04:20:33;;;;;;;1.70;1.10;;;;;;;12.75;92.23;97088.75;4182696;28;20691;-77
2023/04/24 04:22:37;;;;;;;1.80;0.90;;;;;;;12.78;92.02;97106.78;4163018;28;20712;-77
2023/04/24 04:24:46;;;;;;;3.87;1.10;;;;;;;12.82;90.43;97102.91;4166880;28;20677;-77
2023/04/24 04:26:51;;;;;;;1.50;0.93;;;;;;;12.82;90.74;97102.91;4168499;28;20693;-77
2023/04/24 04:29:06;;;;;;;1.40;1.00;;;;;;;12.83;91.13;97108.03;4185006;28;20666;-77
2023/04/24 04:31:12;;;;;;;1.70;0.90;;;;;;;12.85;91.20;97115.72;4177479;28;20704;-77
2023/04/24 04:33:16;;;;;;;2.30;1.17;;;;;;;12.77;91.04;97120.81;4191558;28;20985;-77
2023/04/24 04:35:19;;;;;;;2.37;1.20;;;;;;;12.72;92.21;97141.38;4169683;28;20810;-77
2023/04/24 04:37:26;;;;;;;3.80;1.20;;;;;;;12.76;93.38;97168.88;4181336;28;20699;-77
2023/04/24 04:39:42;;;;;;;2.90;1.10;;;;;;;12.78;92.15;97165.16;4188145;28;20633;-76
2023/04/24 04:41:53;;;;;;;1.87;0.90;;;;;;;12.73;89.83;97177.00;4168991;28;20633;-76
2023/04/24 04:43:58;;;;;;;2.17;1.00;;;;;;;12.61;92.25;97180.75;4168237;28;20677;-77
2023/04/24 04:46:03;;;;;;;2.60;1.10;;;;;;;12.54;91.26;97182.28;4185400;28;20635;-76
2023/04/24 04:48:31;;;;;;;2.20;1.00;;;;;;;12.47;93.01;97182.97;4189462;28;20743;-77
2023/04/24 04:50:36;;;;;;;1.77;1.00;;;;;;;12.38;93.83;97186.41;4188395;28;21316;-77
2023/04/24 04:52:42;;;;;;;3.93;0.93;;;;;;;12.34;94.42;97191.09;4189802;28;20628;-77
2023/04/24 04:54:55;;;;;;;4.00;0.90;;;;;;;12.31;95.39;97187.91;4185706;28;21061;-77
2023/04/24 04:57:06;;;;;;;2.60;1.20;;;;;;;12.29;94.73;97198.50;4180884;28;20724;-77
2023/04/24 04:59:12;;;;;;;3.10;1.10;;;;;;;12.29;95.14;97198.50;4170101;28;20664;-76
2023/04/24 05:01:15;;;;;;;2.47;1.00;;;;;;;12.31;95.17;97211.44;4191257;28;20627;-76
2023/04/24 05:03:21;;;;;;;2.30;1.20;;;;;;;12.34;94.79;97216.41;4170629;28;21057;-76
2023/04/24 05:05:40;;;;;;;1.73;1.00;;;;;;;12.34;95.90;97224.25;4172816;28;21063;-76
2023/04/24 05:07:46;;;;;;;2.57;1.30;;;;;;;12.35;97.16;97228.53;4171752;28;21332;-77
2023/04/24 05:09:51;;;;;;;2.07;1.20;;;;;;;12.37;96.98;97229.19;4165450;28;20662;-75
2023/04/24 05:11:55;;;;;;;1.67;1.30;;;;;;;12.39;95.92;97232.53;4183615;28;20665;-76
2023/04/24 05:14:01;;;;;;;3.23;1.20;;;;;;;12.42;96.15;97234.88;4164218;28;20718;-77
2023/04/24 05:16:15;;;;;;;2.67;1.40;;;;;;;12.39;97.70;97227.31;4185945;28;20647;-76
2023/04/24 05:18:18;;;;;;;2.37;1.60;;;;;;;12.36;97.54;97231.00;4183858;28;25072;-76
2023/04/24 05:20:22;;;;;;;3.13;1.30;;;;;;;12.37;96.91;97237.91;4187153;28;21356;-76
2023/04/24 05:22:25;;;;;;;4.30;1.33;;;;;;;12.35;96.72;97239.78;4188264;28;20624;-76
2023/04/24 05:24:28;;;;;;;1.80;1.40;;;;;;;12.36;95.71;97243.25;4174975;28;21180;-76
2023/04/24 05:26:56;;;;;;;1.47;1.17;;;;;;;12.36;97.09;97241.47;4161105;28;20663;-76
2023/04/24 05:29:06;;;;;;;3.93;1.47;;;;;;;12.39;97.13;97250.84;4167586;28;20647;-77
2023/04/24 05:31:09;;;;;;;2.07;1.50;;;;;;;12.41;97.44;97262.78;4178873;28;20656;-77
2023/04/24 05:33:13;;;;;;;3.70;1.40;;;;;;;12.43;96.94;97254.81;4162137;28;20640;-76
2023/04/24 05:35:18;;;;;;;2.93;1.43;;;;;;;12.45;96.11;97256.34;4170451;28;20703;-76
2023/04/24 05:37:21;;;;;;;2.53;1.70;;;;;;;12.49;96.31;97267.34;4167123;28;20638;-76
2023/04/24 05:39:25;;;;;;;2.33;1.80;;;;;;;12.52;97.41;97274.91;4175644;28;21047;-77
2023/04/24 05:41:29;;;;;;;2.67;1.80;;;;;;;12.55;97.68;97275.47;4167701;28;20733;-77
2023/04/24 05:43:32;;;;;;;2.40;2.00;;;;;;;12.62;97.63;97270.53;4181822;28;20662;-77
2023/04/24 05:45:37;;;;;;;1.93;1.50;;;;;;;12.64;97.32;97276.44;4182636;28;20734;-76
2023/04/24 05:47:40;;;;;;;2.00;1.43;;;;;;;12.63;95.95;97272.16;4183011;28;21206;-76
2023/04/24 05:49:43;;;;;;;2.70;1.60;;;;;;;12.66;95.17;97271.88;4185038;28;21021;-77
2023/04/24 05:51:47;;;;;;;2.60;1.70;;;;;;;12.69;95.04;97277.69;4180137;28;21104;-76
2023/04/24 05:53:52;;;;;;;2.47;1.87;;;;;;;12.73;95.66;97285.13;4183583;28;21248;-76
2023/04/24 05:55:57;;;;;;;2.67;1.60;;;;;;;12.74;96.86;97289.38;4184491;28;21703;-76
2023/04/24 05:58:01;;;;;;;2.43;1.87;;;;;;;12.75;95.15;97295.47;4176681;28;20640;-76
2023/04/24 06:00:07;;;;;;;2.57;1.80;;;;;;;12.75;96.74;97300.69;4173676;28;20630;-76
2023/04/24 06:02:24;;;;;;;2.53;2.30;;;;;;;12.72;95.72;97301.78;4185415;28;20633;-76
2023/04/24 06:04:30;;;;;;;4.10;2.10;;;;;;;12.72;94.89;97309.63;4189029;28;20738;-75
2023/04/24 06:06:35;;;;;;;3.00;2.20;;;;;;;12.69;94.23;97309.91;4184558;28;21404;-76
2023/04/24 06:08:38;;;;;;;3.33;2.20;;;;;;;12.67;95.84;97308.38;4173870;28;20649;-76
2023/04/24 06:10:42;;;;;;;3.30;2.27;;;;;;;12.68;95.84;97308.25;4204473;28;20632;-76
2023/04/24 06:12:46;;;;;;;3.37;2.10;;;;;;;12.70;95.10;97316.81;4178690;28;20728;-76
2023/04/24 06:14:52;;;;;;;4.50;2.40;;;;;;;12.80;95.27;97320.22;4170406;28;21079;-76
2023/04/24 06:17:00;;;;;;;2.83;2.30;;;;;;;12.85;94.39;97318.09;4189701;28;20636;-76
2023/04/24 06:19:11;;;;;;;3.00;2.60;;;;;;;12.84;94.42;97321.66;4176415;28;20628;-76
2023/04/24 06:21:16;;;;;;;3.43;2.90;;;;;;;12.85;94.02;97325.09;4169061;28;20646;-76
2023/04/24 06:23:20;;;;;;;3.73;2.73;;;;;;;12.91;93.93;97322.75;4170800;28;20621;-76
2023/04/24 06:25:25;;;;;;;3.63;2.60;;;;;;;12.95;93.35;97326.75;4168538;28;20646;-76
2023/04/24 06:27:29;;;;;;;3.60;2.97;;;;;;;12.90;92.74;97317.63;4181578;28;23052;-76
2023/04/24 06:29:32;;;;;;;5.17;2.40;;;;;;;12.87;91.44;97320.53;4206619;28;21075;-76
2023/04/24 06:31:36;;;;;;;3.60;3.00;;;;;;;12.85;91.59;97314.63;4185792;28;20705;-76
2023/04/24 06:33:40;;;;;;;4.60;3.00;;;;;;;12.87;91.61;97316.16;4186260;28;20781;-76
2023/04/24 06:35:46;;;;;;;5.17;2.60;;;;;;;12.92;92.49;97319.16;4185813;28;20621;-76
2023/04/24 06:37:50;;;;;;;3.50;3.00;;;;;;;13.03;93.26;97318.22;4170660;28;20632;-76
2023/04/24 06:39:53;;;;;;;4.37;2.73;;;;;;;13.36;94.19;97323.81;4174387;28;20637;-76
2023/04/24 06:41:56;;;;;;;5.87;3.20;;;;;;;13.69;92.77;97327.59;4185799;28;23083;-76
2023/04/24 06:43:59;;;;;;;4.10;3.10;;;;;;;14.21;91.12;97334.91;4187805;28;20719;-76
2023/04/24 06:46:03;;;;;;;4.47;4.07;;;;;;;14.74;91.14;97336.66;4168375;28;20631;-78
2023/04/24 06:48:06;;;;;;;3.60;3.00;;;;;;;15.12;88.67;97339.81;4183343;28;20641;-76
2023/04/24 06:50:11;;;;;;;8.77;3.20;;;;;;;15.25;85.51;97335.84;4180185;28;20642;-78
2023/04/24 06:52:15;;;;;;;4.00;2.90;;;;;;;15.41;85.08;97335.16;4184373;28;20641;-78
2023/04/24 06:54:19;;;;;;;4.17;3.30;;;;;;;15.35;86.11;97327.88;4183062;28;20682;-78
2023/04/24 06:56:22;;;;;;;6.50;3.17;;;;;;;15.34;85.34;97334.13;4186007;28;20642;-78
2023/04/24 06:58:25;;;;;;;4.50;3.10;;;;;;;15.24;85.17;97333.38;4183162;28;21502;-77
2023/04/24 07:00:29;;;;;;;4.13;3.10;;;;;;;15.10;86.40;97333.88;4188502;28;20669;-79
2023/04/24 07:02:33;;;;;;;6.70;3.47;;;;;;;14.75;83.86;97323.38;4162549;28;20633;-76
2023/04/24 07:04:36;;;;;;;5.20;3.80;;;;;;;14.53;84.65;97322.16;4173295;28;21264;-77
2023/04/24 07:06:40;;;;;;;4.40;3.30;;;;;;;14.27;84.66;97323.81;4185627;28;20955;-77
2023/04/24 07:08:44;;;;;;;4.50;3.10;;;;;;;14.08;85.56;97317.84;4174699;28;21170;-76
2023/04/24 07:10:47;;;;;;;3.60;3.30;;;;;;;14.03;85.76;97315.63;4166386;28;20654;-76
2023/04/24 07:12:51;;;;;;;3.70;2.70;;;;;;;13.97;85.01;97318.00;4178677;28;20777;-76
2023/04/24 07:14:54;;;;;;;7.00;2.83;;;;;;;13.76;84.04;97302.47;4185118;28;20629;-76
2023/04/24 07:16:57;;;;;;;3.10;2.80;;;;;;;13.94;84.66;97313.88;4178084;28;20629;-76
2023/04/24 07:19:01;;;;;;;4.70;3.43;;;;;;;13.93;84.53;97314.00;4183528;28;20633;-77
2023/04/24 07:21:04;;;;;;;4.10;2.97;;;;;;;13.88;85.37;97311.81;4183375;28;20638;-75
2023/04/24 07:23:08;;;;;;;3.90;3.00;;;;;;;14.34;86.88;97319.63;4174879;28;20732;-76
2023/04/24 07:25:13;;;;;;;5.33;3.00;;;;;;;14.65;85.17;97324.41;4184402;28;21053;-76
2023/04/24 07:27:16;;;;;;;3.07;2.77;;;;;;;15.10;82.20;97333.88;4182806;28;20779;-76
2023/04/24 07:29:19;;;;;;;3.50;2.70;;;;;;;15.03;82.58;97321.50;4157956;28;21058;-76
2023/04/24 07:31:22;;;;;;;6.60;2.93;;;;;;;15.14;83.16;97330.81;4178721;28;20732;-76
2023/04/24 07:33:26;;;;;;;3.93;2.90;;;;;;;15.24;82.65;97336.81;4172071;28;21020;-76
2023/04/24 07:35:29;;;;;;;3.20;2.90;;;;;;;15.23;82.23;97342.22;4163558;28;21208;-76
2023/04/24 07:37:32;;;;;;;4.60;3.17;;;;;;;15.10;83.15;97336.50;4186233;28;21011;-76
2023/04/24 07:39:35;;;;;;;4.40;3.23;;;;;;;14.96;82.94;97328.31;4162888;28;20631;-76
2023/04/24 07:41:40;;;;;;;5.67;3.87;;;;;;;14.86;81.18;97333.66;4185680;28;20674;-76
2023/04/24 07:43:43;;;;;;;3.63;3.00;;;;;;;14.66;82.08;97329.50;4202191;28;20640;-76
2023/04/24 07:45:47;;;;;;;4.33;3.17;;;;;;;14.52;81.44;97334.44;4186097;28;20732;-76
2023/04/24 07:47:51;;;;;;;5.63;3.10;;;;;;;14.43;81.46;97332.69;4185271;28;21212;-76
2023/04/24 07:49:54;;;;;;;4.77;3.00;;;;;;;14.35;80.39;97342.28;4184133;28;20642;-76
2023/04/24 07:52:00;;;;;;;5.73;3.80;;;;;;;14.30;81.79;97339.28;4185002;28;20634;-76
2023/04/24 07:54:03;;;;;;;4.23;2.73;;;;;;;14.22;81.59;97342.63;4188097;28;20636;-76
2023/04/24 07:56:07;;;;;;;3.73;3.33;;;;;;;14.24;81.62;97330.19;4179673;28;21029;-76
2023/04/24 07:58:11;;;;;;;3.27;2.77;;;;;;;14.29;80.87;97341.06;4183846;28;20633;-76
2023/04/24 08:00:15;;;;;;;3.63;2.93;;;;;;;14.54;81.69;97343.00;4172251;28;20632;-76
2023/04/24 08:02:18;;;;;;;3.70;2.60;;;;;;;14.85;80.03;97354.81;4172459;28;20639;-76
2023/04/24 08:04:21;;;;;;;3.57;2.60;;;;;;;14.86;79.05;97351.22;4176407;28;20721;-76
2023/04/24 08:06:27;;;;;;;5.60;2.87;;;;;;;14.74;78.75;97350.59;4188410;28;21384;-76
2023/04/24 08:08:30;;;;;;;3.90;2.47;;;;;;;14.58;75.94;97346.97;4186825;28;21021;-76
2023/04/24 08:10:33;;;;;;;4.23;3.07;;;;;;;14.44;74.88;97349.28;4180855;28;20782;-76
2023/04/24 08:12:37;;;;;;;3.40;2.37;;;;;;;14.34;74.65;97358.97;4181345;28;20640;-76
2023/04/24 08:14:42;;;;;;;3.83;2.47;;;;;;;14.26;76.25;97354.44;4187982;28;20644;-76
2023/04/24 08:16:45;;;;;;;4.23;2.93;;;;;;;14.23;75.52;97365.22;4185441;28;20649;-76
2023/04/24 08:18:50;;;;;;;6.80;2.97;;;;;;;14.25;76.38;97370.34;4186663;28;20981;-76
2023/04/24 08:20:53;;;;;;;2.77;2.33;;;;;;;14.42;75.92;97372.22;4170811;28;20630;-76
2023/04/24 08:22:57;;;;;;;4.30;3.00;;;;;;;14.89;75.79;97383.25;4185978;28;20655;-76
2023/04/24 08:25:01;;;;;;;4.57;2.77;;;;;;;15.00;75.43;97380.41;4182413;28;21104;-76
2023/04/24 08:27:04;;;;;;;3.73;2.90;;;;;;;15.05;74.10;97380.78;4185251;28;20643;-76
2023/04/24 08:29:07;;;;;;;5.23;2.67;;;;;;;15.07;72.69;97382.28;4186025;28;20712;-76
2023/04/24 08:31:12;;;;;;;2.90;2.20;;;;;;;15.39;70.56;97389.69;4168556;28;20686;-76
2023/04/24 08:33:15;;;;;;;2.93;2.40;;;;;;;15.91;72.78;97414.09;4185672;28;21214;-76
2023/04/24 08:35:19;;;;;;;2.37;2.10;;;;;;;16.24;68.85;97413.34;4176661;28;20647;-77
2023/04/24 08:37:22;;;;;;;4.50;1.83;;;;;;;16.47;68.63;97414.47;4181696;28;21569;-77
2023/04/24 08:39:25;;;;;;;2.70;2.27;;;;;;;16.48;67.48;97418.72;4188363;28;21507;-76
2023/04/24 08:41:28;;;;;;;2.60;2.10;;;;;;;16.14;65.52;97402.06;4202309;28;20641;-76
2023/04/24 08:43:34;;;;;;;4.90;2.90;;;;;;;16.38;67.02;97405.69;4177301;28;20654;-76
2023/04/24 08:45:38;;;;;;;7.40;2.30;;;;;;;16.34;66.23;97400.88;4176443;28;20666;-76
2023/04/24 08:47:43;;;;;;;2.93;1.93;;;;;;;16.55;65.78;97412.69;4187087;28;21017;-76
2023/04/24 08:49:49;;;;;;;5.47;2.00;;;;;;;16.61;62.35;97410.25;4182922;28;20677;-76
2023/04/24 08:51:53;;;;;;;3.23;2.07;;;;;;;16.64;62.14;97414.38;4172679;28;20628;-76
2023/04/24 08:53:57;;;;;;;2.70;1.77;;;;;;;16.84;64.07;97416.59;4181999;28;20667;-77
2023/04/24 08:56:02;;;;;;;3.53;2.60;;;;;;;17.04;63.18;97420.59;4185171;28;20622;-76
2023/04/24 08:58:05;;;;;;;2.67;1.90;;;;;;;17.14;62.12;97422.13;4167426;28;20624;-77
2023/04/24 09:00:11;;;;;;;3.23;2.03;;;;;;;17.05;63.01;97419.63;4184402;28;20639;-76
2023/04/24 09:02:14;;;;;;;4.23;2.00;;;;;;;16.74;60.22;97417.72;4185900;28;20995;-76
2023/04/24 09:04:21;;;;;;;3.33;1.80;;;;;;;16.93;62.44;97428.81;4166667;28;20683;-76
2023/04/24 09:06:26;;;;;;;3.17;1.40;;;;;;;17.14;62.84;97426.56;4173728;28;20966;-77
2023/04/24 09:08:29;;;;;;;4.00;2.30;;;;;;;17.26;62.31;97426.13;4177141;28;20624;-76
2023/04/24 09:10:32;;;;;;;2.13;1.80;;;;;;;17.48;65.31;97428.97;4183299;28;20679;-77
2023/04/24 09:12:35;;;;;;;2.90;1.67;;;;;;;17.66;62.34;97428.81;4183296;28;20639;-76
2023/04/24 09:14:42;;;;;;;2.13;1.90;;;;;;;17.39;60.66;97423.84;4191166;28;20619;-77
2023/04/24 09:16:45;;;;;;;2.30;2.03;;;;;;;17.08;63.77;97421.94;4166594;28;20670;-76
2023/04/24 09:18:49;;;;;;;3.83;2.30;;;;;;;16.71;62.08;97426.75;4182259;28;24887;-76
2023/04/24 09:21:00;;;;;;;2.90;1.77;;;;;;;16.57;64.75;97427.34;4183999;28;20772;-76
2023/04/24 09:23:03;;;;;;;3.00;2.00;;;;;;;16.41;64.69;97420.34;4181900;28;21186;-76
2023/04/24 09:25:08;;;;;;;4.33;1.80;;;;;;;16.22;64.69;97420.56;4181380;28;20648;-76
2023/04/24 09:27:12;;;;;;;2.90;1.93;;;;;;;16.05;65.16;97413.53;4177579;28;21083;-77
2023/04/24 09:29:16;;;;;;;3.60;1.87;;;;;;;16.01;63.65;97412.16;4188797;28;20647;-76
2023/04/24 09:31:21;;;;;;;2.60;2.27;;;;;;;16.07;65.17;97420.28;4179919;28;20646;-76
2023/04/24 09:33:25;;;;;;;2.13;1.90;;;;;;;16.05;65.15;97421.41;4168011;28;21215;-76
2023/04/24 09:35:28;;;;;;;5.13;2.00;;;;;;;15.99;67.79;97424.66;4186792;28;20644;-76
2023/04/24 09:37:36;;;;;;;4.30;2.50;;;;;;;15.89;66.29;97426.56;4186454;28;20729;-76
2023/04/24 09:39:40;;;;;;;3.30;2.27;;;;;;;15.80;65.50;97422.22;4184038;28;20680;-76
2023/04/24 09:41:45;;;;;;;2.50;1.90;;;;;;;15.64;65.69;97424.72;4195512;28;21735;-76
2023/04/24 09:43:48;;;;;;;3.43;1.93;;;;;;;15.43;65.79;97417.31;4160284;28;20638;-76
2023/04/24 09:45:57;;;;;;;2.20;1.90;;;;;;;15.20;67.39;97421.38;4185240;28;21095;-76
2023/04/24 09:48:00;;;;;;;4.80;2.27;;;;;;;15.10;66.93;97426.63;4185183;28;20638;-76